createdAt,value
2019-04-25T00:00:48.325Z,84.2756
2019-04-25T00:01:52.325Z,84.2664
2019-04-25T00:02:55.318Z,84.1917
2019-04-25T00:03:58.320Z,84.3076
2019-04-25T00:05:01.367Z,84.4266
2019-04-25T00:06:06.333Z,84.6098
2019-04-25T00:07:09.273Z,84.7883
2019-04-25T00:08:12.359Z,84.9424
2019-04-25T00:09:15.307Z,84.9393
2019-04-25T00:10:18.305Z,84.8325
2019-04-25T00:11:21.613Z,84.8554
2019-04-25T00:12:24.317Z,84.7654
2019-04-25T00:13:27.295Z,84.6006
2019-04-25T00:14:31.483Z,84.6174
2019-04-25T00:15:34.312Z,84.5136
2019-04-25T00:16:37.267Z,84.4343
2019-04-25T00:17:41.953Z,84.4297
2019-04-25T00:18:45.264Z,84.3519
2019-04-25T00:19:48.563Z,84.5624
2019-04-25T00:20:52.208Z,84.5350
2019-04-25T00:21:55.290Z,84.6082
2019-04-25T00:22:58.349Z,84.6922
2019-04-25T00:24:02.636Z,84.7791
2019-04-25T00:25:14.993Z,84.8707
2019-04-25T00:26:13.269Z,84.9882
2019-04-25T00:27:16.285Z,85.1438
2019-04-25T00:28:19.304Z,85.1530
2019-04-25T00:29:22.308Z,85.0156
2019-04-25T00:30:25.281Z,84.9668
2019-04-25T00:31:28.270Z,85.0111
2019-04-25T00:32:31.610Z,84.8371
2019-04-25T00:33:33.290Z,84.8142
2019-04-25T00:34:36.299Z,84.7456
2019-04-25T00:35:39.280Z,84.7013
2019-04-25T00:36:43.505Z,84.9302
2019-04-25T00:37:47.790Z,85.0538
2019-04-25T00:38:52.314Z,85.2445
2019-04-25T00:39:56.281Z,85.3880
2019-04-25T00:40:59.269Z,85.4368
2019-04-25T00:42:02.512Z,85.4063
2019-04-25T00:43:05.297Z,85.5024
2019-04-25T00:44:08.295Z,85.4414
2019-04-25T00:45:11.917Z,85.6031
2019-04-25T00:46:17.301Z,85.7084
2019-04-25T00:47:21.629Z,85.6764
2019-04-25T00:48:23.345Z,85.6611
2019-04-25T00:49:26.283Z,85.4978
2019-04-25T00:50:29.323Z,85.1682
2019-04-25T00:51:32.281Z,85.2598
2019-04-25T00:52:35.298Z,85.3452
2019-04-25T00:53:38.297Z,85.3330
2019-04-25T00:54:42.240Z,85.4002
2019-04-25T00:55:46.480Z,85.3742
2019-04-25T00:56:49.398Z,85.4688
2019-04-25T00:57:52.809Z,85.3956
2019-04-25T00:58:56.290Z,85.4704
2019-04-25T00:59:59.303Z,85.4978
2019-04-25T01:01:02.285Z,85.5207
2019-04-25T01:02:07.565Z,85.5283
2019-04-25T01:03:09.353Z,85.5329
2019-04-25T01:04:12.325Z,85.5665
2019-04-25T01:05:15.303Z,85.6382
2019-04-25T01:06:18.281Z,85.7847
2019-04-25T01:07:22.377Z,85.6382
2019-04-25T01:08:25.339Z,85.3635
2019-04-25T01:09:28.325Z,85.2232
2019-04-25T01:10:31.613Z,85.2216
2019-04-25T01:11:34.290Z,85.3086
2019-04-25T01:12:37.305Z,85.3727
2019-04-25T01:13:39.285Z,85.3239
2019-04-25T01:14:42.301Z,85.1667
2019-04-25T01:15:45.271Z,85.0706
2019-04-25T01:16:48.616Z,84.9851
2019-04-25T01:17:51.519Z,84.9882
2019-04-25T01:18:55.600Z,85.0721
2019-04-25T01:19:58.286Z,85.2445
2019-04-25T01:21:01.266Z,85.3773
2019-04-25T01:22:04.306Z,85.3315
2019-04-25T01:23:07.294Z,85.3773
2019-04-25T01:24:10.283Z,85.2735
2019-04-25T01:25:13.776Z,85.3361
2019-04-25T01:26:17.308Z,85.3223
2019-04-25T01:27:20.282Z,85.4246
2019-04-25T01:28:24.318Z,85.5116
2019-04-25T01:29:27.275Z,85.9831
2019-04-25T01:30:30.275Z,85.9174
2019-04-25T01:31:33.643Z,85.8595
2019-04-25T01:32:36.281Z,85.5711
2019-04-25T01:33:39.330Z,85.5894
2019-04-25T01:34:44.146Z,85.6397
2019-04-25T01:35:47.281Z,85.5802
2019-04-25T01:36:50.764Z,85.4643
2019-04-25T01:37:55.272Z,85.3544
2019-04-25T01:38:59.301Z,85.2720
2019-04-25T01:40:04.014Z,85.0843
2019-04-25T01:41:07.298Z,84.9210
2019-04-25T01:42:10.289Z,84.8371
2019-04-25T01:43:13.749Z,84.7822
2019-04-25T01:44:17.306Z,84.7364
2019-04-25T01:45:20.314Z,84.7562
2019-04-25T01:46:24.285Z,84.7364
2019-04-25T01:47:27.339Z,84.8417
2019-04-25T01:48:30.283Z,84.8142
2019-04-25T01:49:33.957Z,84.8524
2019-04-25T01:50:37.301Z,84.9287
2019-04-25T01:51:40.309Z,84.8615
2019-04-25T01:52:43.481Z,84.9378
2019-04-25T01:53:46.285Z,84.9012
2019-04-25T01:54:49.360Z,84.9989
2019-04-25T01:56:00.954Z,84.9195
2019-04-25T01:57:00.318Z,84.8936
2019-04-25T01:58:03.855Z,84.8753
2019-04-25T01:59:07.287Z,84.7242
2019-04-25T02:00:09.314Z,84.7791
2019-04-25T02:01:12.258Z,84.7105
2019-04-25T02:02:15.297Z,84.6769
2019-04-25T02:03:17.289Z,84.6967
2019-04-25T02:04:20.331Z,84.7593
2019-04-25T02:05:23.779Z,84.7562
2019-04-25T02:06:26.320Z,84.5441
2019-04-25T02:07:29.273Z,84.6037
2019-04-25T02:08:33.873Z,84.6861
2019-04-25T02:09:37.297Z,84.6174
2019-04-25T02:10:40.352Z,84.5945
2019-04-25T02:11:43.943Z,84.5823
2019-04-25T02:12:47.307Z,84.7013
2019-04-25T02:13:51.272Z,84.7150
2019-04-25T02:14:55.497Z,84.6922
2019-04-25T02:15:59.310Z,84.7089
2019-04-25T02:17:02.898Z,84.8737
2019-04-25T02:18:07.321Z,84.7089
2019-04-25T02:19:10.288Z,84.5624
2019-04-25T02:20:14.007Z,84.4984
2019-04-25T02:21:17.288Z,84.5411
2019-04-25T02:22:20.316Z,84.6311
2019-04-25T02:23:24.073Z,84.5228
2019-04-25T02:24:27.297Z,84.5670
2019-04-25T02:25:30.336Z,84.5579
2019-04-25T02:26:34.038Z,84.5899
2019-04-25T02:27:37.342Z,84.4999
2019-04-25T02:28:40.318Z,84.5258
2019-04-25T02:29:44.686Z,84.4129
2019-04-25T02:30:48.342Z,84.3290
2019-04-25T02:31:51.335Z,84.4633
2019-04-25T02:32:58.400Z,84.3336
2019-04-25T02:34:04.643Z,84.1932
2019-04-25T02:35:10.324Z,84.2481
2019-04-25T02:36:15.026Z,84.2573
2019-04-25T02:37:18.313Z,84.3671
2019-04-25T02:38:21.305Z,84.4678
2019-04-25T02:39:24.625Z,84.5045
2019-04-25T02:40:27.358Z,84.6601
2019-04-25T02:41:30.323Z,84.6952
2019-04-25T02:42:34.392Z,84.6906
2019-04-25T02:43:37.321Z,84.6494
2019-04-25T02:44:40.293Z,84.7044
2019-04-25T02:45:44.256Z,84.7959
2019-04-25T02:46:47.317Z,84.8142
2019-04-25T02:47:50.303Z,84.8066
2019-04-25T02:48:56.219Z,84.8341
2019-04-25T02:50:00.893Z,84.9012
2019-04-25T02:51:07.172Z,84.8188
2019-04-25T02:52:12.873Z,84.6357
2019-04-25T02:53:17.302Z,84.6220
2019-04-25T02:54:20.335Z,84.6098
2019-04-25T02:55:34.019Z,84.6174
2019-04-25T02:56:37.690Z,84.6418
2019-04-25T02:57:39.311Z,84.6693
2019-04-25T02:58:44.147Z,84.6906
2019-04-25T02:59:47.279Z,84.8371
2019-04-25T03:00:57.409Z,84.8981
2019-04-25T03:01:58.995Z,84.9058
2019-04-25T03:03:03.382Z,84.9119
2019-04-25T03:04:10.993Z,84.8096
2019-04-25T03:05:14.517Z,84.7868
2019-04-25T03:06:16.304Z,84.7837
2019-04-25T03:07:19.378Z,84.7318
2019-04-25T03:08:24.250Z,84.8188
2019-04-25T03:09:27.310Z,84.7974
2019-04-25T03:10:29.323Z,84.8386
2019-04-25T03:11:32.281Z,84.8478
2019-04-25T03:12:36.794Z,84.8478
2019-04-25T03:13:40.290Z,84.8051
2019-04-25T03:14:44.645Z,84.8615
2019-04-25T03:15:48.311Z,84.8981
2019-04-25T03:16:51.315Z,84.8432
2019-04-25T03:17:54.775Z,84.9210
2019-04-25T03:18:59.424Z,85.0202
2019-04-25T03:20:06.707Z,84.9622
2019-04-25T03:21:14.201Z,84.9439
2019-04-25T03:22:18.299Z,84.9805
2019-04-25T03:23:21.312Z,84.9332
2019-04-25T03:24:25.080Z,85.0751
2019-04-25T03:25:28.298Z,85.3361
2019-04-25T03:26:39.725Z,85.4414
2019-04-25T03:27:39.309Z,85.4276
2019-04-25T03:28:43.741Z,85.3193
2019-04-25T03:29:47.289Z,85.3834
2019-04-25T03:30:50.340Z,85.4337
2019-04-25T03:31:56.146Z,85.2232
2019-04-25T03:33:01.035Z,85.1270
2019-04-25T03:34:09.360Z,85.1759
2019-04-25T03:35:14.327Z,85.1865
2019-04-25T03:36:17.328Z,85.1087
2019-04-25T03:37:20.265Z,85.0843
2019-04-25T03:38:24.257Z,84.9699
2019-04-25T03:39:27.283Z,84.9805
2019-04-25T03:40:30.338Z,85.0675
2019-04-25T03:41:34.119Z,84.8280
2019-04-25T03:42:37.309Z,84.8203
2019-04-25T03:43:40.288Z,85.0889
2019-04-25T03:44:43.807Z,85.0477
2019-04-25T03:45:46.304Z,84.8783
2019-04-25T03:46:49.336Z,84.9287
2019-04-25T03:47:53.167Z,85.0126
2019-04-25T03:48:56.279Z,84.8524
2019-04-25T03:49:59.316Z,84.6418
2019-04-25T03:51:02.858Z,84.6174
2019-04-25T03:52:08.280Z,84.5853
2019-04-25T03:53:12.094Z,84.7196
2019-04-25T03:54:15.310Z,84.5960
2019-04-25T03:55:18.293Z,84.7471
2019-04-25T03:56:21.349Z,84.7547
2019-04-25T03:57:24.270Z,84.8341
2019-04-25T03:58:27.280Z,84.6815
2019-04-25T03:59:30.317Z,84.7181
2019-04-25T04:00:34.202Z,84.7791
2019-04-25T04:01:39.339Z,84.8066
2019-04-25T04:02:44.100Z,84.8920
2019-04-25T04:03:47.311Z,85.0446
2019-04-25T04:04:50.280Z,85.2644
2019-04-25T04:05:53.992Z,85.1545
2019-04-25T04:06:57.341Z,85.1682
2019-04-25T04:07:59.454Z,85.2262
2019-04-25T04:09:03.703Z,85.2644
2019-04-25T04:10:06.645Z,85.1408
2019-04-25T04:11:10.138Z,85.1209
2019-04-25T04:12:14.775Z,85.2689
2019-04-25T04:13:17.319Z,85.2949
2019-04-25T04:14:20.317Z,85.3452
2019-04-25T04:15:25.096Z,85.3727
2019-04-25T04:16:28.274Z,85.1850
2019-04-25T04:17:31.345Z,85.1087
2019-04-25T04:18:34.012Z,85.3056
2019-04-25T04:19:37.289Z,85.2460
2019-04-25T04:20:40.310Z,85.1133
2019-04-25T04:21:43.336Z,85.0797
2019-04-25T04:22:46.338Z,85.1347
2019-04-25T04:23:49.266Z,85.2048
2019-04-25T04:24:53.685Z,85.2171
2019-04-25T04:25:57.295Z,85.1530
2019-04-25T04:27:03.631Z,84.9531
2019-04-25T04:28:08.350Z,85.0568
2019-04-25T04:29:12.090Z,85.1408
2019-04-25T04:30:15.388Z,84.9485
2019-04-25T04:31:18.277Z,84.7654
2019-04-25T04:32:21.344Z,84.8249
2019-04-25T04:33:31.754Z,84.8554
2019-04-25T04:34:33.745Z,84.9027
2019-04-25T04:35:37.294Z,84.9668
2019-04-25T04:36:40.331Z,85.0034
2019-04-25T04:37:43.297Z,84.9348
2019-04-25T04:38:46.358Z,84.9561
2019-04-25T04:39:49.295Z,84.9577
2019-04-25T04:40:52.291Z,84.8829
2019-04-25T04:41:55.508Z,84.9210
2019-04-25T04:42:58.302Z,84.9012
2019-04-25T04:44:01.304Z,84.7974
2019-04-25T04:45:04.275Z,84.5716
2019-04-25T04:46:08.556Z,84.5762
2019-04-25T04:47:12.033Z,84.5869
2019-04-25T04:48:15.543Z,84.4678
2019-04-25T04:49:18.491Z,84.3931
2019-04-25T04:50:21.323Z,84.2527
2019-04-25T04:51:24.299Z,84.3473
2019-04-25T04:52:27.311Z,84.1550
2019-04-25T04:53:30.302Z,84.0742
2019-04-25T04:54:34.430Z,84.0040
2019-04-25T04:55:37.331Z,83.8254
2019-04-25T04:56:40.278Z,83.8453
2019-04-25T04:57:44.778Z,83.5981
2019-04-25T04:58:48.308Z,83.4745
2019-04-25T04:59:51.343Z,83.3417
2019-04-25T05:00:54.284Z,83.1861
2019-04-25T05:01:57.304Z,83.0747
2019-04-25T05:03:00.342Z,83.0610
2019-04-25T05:04:03.962Z,83.0076
2019-04-25T05:05:07.304Z,82.9343
2019-04-25T05:06:10.924Z,82.6947
2019-04-25T05:07:15.305Z,82.6917
2019-04-25T05:08:19.309Z,82.7359
2019-04-25T05:09:23.787Z,82.6276
2019-04-25T05:10:27.272Z,82.5666
2019-04-25T05:11:30.298Z,82.5071
2019-04-25T05:12:33.935Z,82.3438
2019-04-25T05:13:37.305Z,82.3850
2019-04-25T05:14:40.335Z,82.2797
2019-04-25T05:15:44.587Z,82.4063
2019-04-25T05:16:49.481Z,82.1546
2019-04-25T05:17:54.000Z,81.9135
2019-04-25T05:18:57.328Z,81.7990
2019-04-25T05:20:00.290Z,81.6327
2019-04-25T05:21:04.250Z,81.5366
2019-04-25T05:22:07.310Z,81.3168
2019-04-25T05:23:09.342Z,81.2665
2019-04-25T05:24:13.468Z,80.9247
2019-04-25T05:25:19.152Z,80.8866
2019-04-25T05:26:24.666Z,80.6897
2019-04-25T05:27:35.754Z,80.3983
2019-04-25T05:28:36.372Z,80.5524
2019-04-25T05:29:39.312Z,80.5768
2019-04-25T05:30:43.598Z,80.5631
2019-04-25T05:31:46.318Z,80.5447
2019-04-25T05:32:49.381Z,80.4334
2019-04-25T05:33:53.660Z,80.1282
2019-04-25T05:34:57.331Z,79.8993
2019-04-25T05:36:00.312Z,79.9161
2019-04-25T05:37:03.835Z,79.7009
2019-04-25T05:38:07.317Z,79.4812
2019-04-25T05:39:10.288Z,79.3622
2019-04-25T05:40:14.721Z,79.3042
2019-04-25T05:41:20.229Z,79.2615
2019-04-25T05:42:24.809Z,79.4903
2019-04-25T05:43:28.274Z,79.3179
2019-04-25T05:44:31.357Z,79.0784
2019-04-25T05:45:34.308Z,79.3912
2019-04-25T05:46:37.283Z,79.3500
2019-04-25T05:47:40.336Z,78.8876
2019-04-25T05:48:43.853Z,78.8540
2019-04-25T05:49:47.344Z,78.7808
2019-04-25T05:50:50.276Z,78.9837
2019-04-25T05:51:53.890Z,78.8922
2019-04-25T05:52:56.316Z,78.9197
2019-04-25T05:53:59.324Z,78.7411
2019-04-25T05:55:03.860Z,78.6068
2019-04-25T05:56:07.298Z,78.2925
2019-04-25T05:57:10.339Z,77.8973
2019-04-25T05:58:13.822Z,78.0301
2019-04-25T05:59:18.024Z,78.0591
2019-04-25T06:00:21.320Z,77.4823
2019-04-25T06:01:24.974Z,77.6226
2019-04-25T06:02:29.305Z,77.8927
2019-04-25T06:03:33.803Z,77.9675
2019-04-25T06:04:37.310Z,77.5784
2019-04-25T06:05:40.332Z,77.2152
2019-04-25T06:06:44.614Z,77.0840
2019-04-25T06:07:47.289Z,76.7727
2019-04-25T06:08:50.345Z,76.4920
2019-04-25T06:09:54.527Z,76.0891
2019-04-25T06:10:58.348Z,75.8465
2019-04-25T06:12:01.314Z,75.7961
2019-04-25T06:13:04.312Z,75.9747
2019-04-25T06:14:07.337Z,76.1089
2019-04-25T06:15:10.308Z,76.0571
2019-04-25T06:16:13.509Z,75.9213
2019-04-25T06:17:15.323Z,75.6329
2019-04-25T06:18:19.752Z,75.6512
2019-04-25T06:19:25.186Z,75.5367
2019-04-25T06:20:28.329Z,75.6008
2019-04-25T06:21:31.866Z,75.2606
2019-04-25T06:22:36.332Z,75.6191
2019-04-25T06:23:39.306Z,75.6725
2019-04-25T06:24:42.327Z,75.3887
2019-04-25T06:25:45.322Z,75.0195
2019-04-25T06:26:48.324Z,74.9386
2019-04-25T06:27:57.307Z,74.3496
2019-04-25T06:28:59.918Z,74.1100
2019-04-25T06:30:04.390Z,74.2580
2019-04-25T06:31:10.129Z,73.8552
2019-04-25T06:32:14.210Z,73.8720
2019-04-25T06:33:17.357Z,73.4188
2019-04-25T06:34:21.345Z,73.0404
2019-04-25T06:35:25.858Z,72.8878
2019-04-25T06:36:29.316Z,72.4666
2019-04-25T06:37:33.637Z,72.3613
2019-04-25T06:38:37.387Z,72.2530
2019-04-25T06:39:40.308Z,72.1508
2019-04-25T06:40:43.773Z,72.3446
2019-04-25T06:41:47.349Z,72.4544
2019-04-25T06:42:49.327Z,73.1228
2019-04-25T06:43:53.988Z,73.1121
2019-04-25T06:44:57.314Z,72.9107
2019-04-25T06:46:00.335Z,72.5826
2019-04-25T06:47:03.437Z,72.3613
2019-04-25T06:48:06.304Z,72.6543
2019-04-25T06:49:09.337Z,72.6909
2019-04-25T06:50:13.663Z,72.9702
2019-04-25T06:51:18.321Z,72.7413
2019-04-25T06:52:21.610Z,72.9335
2019-04-25T06:53:26.040Z,73.2677
2019-04-25T06:54:30.365Z,73.0404
2019-04-25T06:55:34.290Z,73.3181
2019-04-25T06:56:37.278Z,73.2280
2019-04-25T06:57:40.316Z,73.2921
2019-04-25T06:58:43.858Z,73.0129
2019-04-25T06:59:46.360Z,72.6741
2019-04-25T07:00:58.059Z,71.7342
2019-04-25T07:01:57.303Z,71.6716
2019-04-25T07:02:59.353Z,72.0333
2019-04-25T07:04:01.461Z,71.7678
2019-04-25T07:05:05.396Z,71.3405
2019-04-25T07:06:10.300Z,71.3558
2019-04-25T07:07:14.961Z,71.3954
2019-04-25T07:08:18.311Z,71.5709
2019-04-25T07:09:24.172Z,71.8166
2019-04-25T07:10:29.504Z,70.9789
2019-04-25T07:11:32.972Z,71.0979
2019-04-25T07:12:38.305Z,71.3375
2019-04-25T07:13:41.306Z,71.2947
2019-04-25T07:14:44.295Z,71.0948
2019-04-25T07:15:47.309Z,71.1864
2019-04-25T07:16:50.318Z,70.7271
2019-04-25T07:17:54.027Z,70.6264
2019-04-25T07:18:57.371Z,70.4265
2019-04-25T07:20:00.328Z,69.6101
2019-04-25T07:21:03.409Z,69.3919
2019-04-25T07:22:06.290Z,70.2754
2019-04-25T07:23:09.309Z,70.2709
2019-04-25T07:24:14.124Z,70.4479
2019-04-25T07:25:17.287Z,69.9352
2019-04-25T07:26:19.352Z,69.5232
2019-04-25T07:27:23.688Z,68.4794
2019-04-25T07:28:30.829Z,67.8981
2019-04-25T07:29:34.869Z,68.4077
2019-04-25T07:30:49.968Z,68.7449
2019-04-25T07:31:47.291Z,68.0812
2019-04-25T07:32:50.304Z,68.1376
2019-04-25T07:33:55.300Z,68.5588
2019-04-25T07:34:58.371Z,68.5618
2019-04-25T07:36:01.275Z,68.8823
2019-04-25T07:37:04.315Z,68.6030
2019-04-25T07:38:07.299Z,68.5847
2019-04-25T07:39:10.738Z,68.1972
2019-04-25T07:40:14.323Z,68.3391
2019-04-25T07:41:17.332Z,68.3833
2019-04-25T07:42:20.343Z,67.7577
2019-04-25T07:43:23.439Z,66.1646
2019-04-25T07:44:38.765Z,65.7923
2019-04-25T07:45:35.056Z,65.9663
2019-04-25T07:46:39.983Z,65.2979
2019-04-25T07:47:44.101Z,66.0761
2019-04-25T07:48:46.318Z,66.8788
2019-04-25T07:49:49.364Z,65.3941
2019-04-25T07:50:53.639Z,65.5177
2019-04-25T07:51:57.326Z,65.1514
2019-04-25T07:53:00.309Z,64.9592
2019-04-25T07:54:04.528Z,65.0935
2019-04-25T07:55:07.319Z,65.1789
2019-04-25T07:56:10.358Z,65.2430
2019-04-25T07:57:13.588Z,65.2720
2019-04-25T07:58:17.327Z,64.3137
2019-04-25T07:59:20.317Z,64.2832
2019-04-25T08:00:24.032Z,64.1306
2019-04-25T08:01:28.115Z,62.8443
2019-04-25T08:02:33.832Z,62.2538
2019-04-25T08:03:37.313Z,63.4760
2019-04-25T08:04:40.310Z,63.5325
2019-04-25T08:05:43.992Z,63.3906
2019-04-25T08:06:47.337Z,63.0549
2019-04-25T08:07:49.389Z,62.9419
2019-04-25T08:08:52.297Z,62.7390
2019-04-25T08:09:55.314Z,61.9562
2019-04-25T08:10:58.323Z,61.9028
2019-04-25T08:12:01.303Z,62.3423
2019-04-25T08:13:04.949Z,62.4521
2019-04-25T08:14:08.291Z,60.0839
2019-04-25T08:15:11.395Z,59.9878
2019-04-25T08:16:14.614Z,60.4501
2019-04-25T08:17:18.317Z,60.6470
2019-04-25T08:18:23.356Z,59.2523
2019-04-25T08:19:28.729Z,58.9075
2019-04-25T08:20:34.042Z,59.0829
2019-04-25T08:21:37.289Z,58.3124
2019-04-25T08:22:51.965Z,58.1659
2019-04-25T08:23:48.313Z,58.4131
2019-04-25T08:24:51.317Z,59.2416
2019-04-25T08:25:54.479Z,57.8454
2019-04-25T08:26:57.357Z,59.0906
2019-04-25T08:28:00.310Z,60.5203
2019-04-25T08:29:03.653Z,61.5641
2019-04-25T08:30:07.313Z,62.4414
2019-04-25T08:31:10.332Z,62.7756
2019-04-25T08:32:14.245Z,62.7024
2019-04-25T08:33:17.314Z,62.6673
2019-04-25T08:34:20.322Z,62.4369
2019-04-25T08:35:24.100Z,62.3652
2019-04-25T08:36:27.355Z,62.3789
2019-04-25T08:37:30.449Z,62.6474
2019-04-25T08:38:34.713Z,62.7390
2019-04-25T08:39:38.890Z,61.9577
2019-04-25T08:40:44.078Z,60.2777
2019-04-25T08:41:47.308Z,60.4288
2019-04-25T08:42:50.338Z,60.1480
2019-04-25T08:43:54.484Z,59.2645
2019-04-25T08:44:58.310Z,60.1022
2019-04-25T08:46:01.325Z,59.4446
2019-04-25T08:47:04.527Z,57.5494
2019-04-25T08:48:06.378Z,58.2315
2019-04-25T08:49:09.315Z,59.0127
2019-04-25T08:50:26.395Z,58.8663
2019-04-25T08:51:20.346Z,58.6114
2019-04-25T08:52:24.338Z,58.5794
2019-04-25T08:53:27.314Z,57.4975
2019-04-25T08:54:31.200Z,56.5408
2019-04-25T08:55:36.244Z,55.8358
2019-04-25T08:56:40.308Z,54.9844
2019-04-25T08:57:44.009Z,55.2728
2019-04-25T08:58:47.332Z,52.8527
2019-04-25T08:59:52.672Z,51.9905
2019-04-25T09:01:00.928Z,51.9371
2019-04-25T09:02:04.356Z,51.5068
2019-04-25T09:03:07.321Z,52.0500
2019-04-25T09:04:10.286Z,50.9606
2019-04-25T09:05:14.463Z,51.1086
2019-04-25T09:06:19.382Z,50.9377
2019-04-25T09:07:23.564Z,50.7744
2019-04-25T09:08:26.293Z,49.9138
2019-04-25T09:09:32.490Z,48.6549
2019-04-25T09:10:39.977Z,49.1035
2019-04-25T09:11:45.921Z,48.1651
2019-04-25T09:12:50.293Z,48.0552
2019-04-25T09:13:53.714Z,47.3533
2019-04-25T09:14:57.304Z,46.8635
2019-04-25T09:16:00.333Z,46.1234
2019-04-25T09:17:03.337Z,45.5634
2019-04-25T09:18:06.329Z,44.6494
2019-04-25T09:19:09.347Z,44.2771
2019-04-25T09:20:13.776Z,42.8809
2019-04-25T09:21:17.341Z,42.1683
2019-04-25T09:22:20.310Z,43.1464
2019-04-25T09:23:23.698Z,41.1460
2019-04-25T09:24:26.310Z,40.3906
2019-04-25T09:25:29.315Z,39.1226
2019-04-25T09:26:33.960Z,41.1414
2019-04-25T09:27:40.364Z,39.9344
2019-04-25T09:28:46.307Z,40.5600
2019-04-25T09:29:50.315Z,40.0565
2019-04-25T09:30:54.018Z,40.4089
2019-04-25T09:31:57.312Z,41.1749
2019-04-25T09:33:00.370Z,40.8988
2019-04-25T09:34:04.077Z,40.8957
2019-04-25T09:35:07.284Z,39.5026
2019-04-25T09:36:10.366Z,34.6899
2019-04-25T09:37:14.251Z,35.4421
2019-04-25T09:38:17.374Z,33.7881
2019-04-25T09:39:20.294Z,35.2621
2019-04-25T09:40:23.966Z,35.8587
2019-04-25T09:41:27.318Z,37.7081
2019-04-25T09:42:30.355Z,38.0148
2019-04-25T09:43:33.563Z,37.7691
2019-04-25T09:44:38.450Z,37.9706
2019-04-25T09:45:43.924Z,38.7259
2019-04-25T09:46:47.800Z,38.0468
2019-04-25T09:47:51.331Z,37.5540
2019-04-25T09:48:54.329Z,38.2177
2019-04-25T09:49:57.351Z,31.0185
2019-04-25T09:51:00.315Z,32.0134
2019-04-25T09:52:04.396Z,33.0877
2019-04-25T09:53:07.340Z,31.3405
2019-04-25T09:54:10.318Z,29.0288
2019-04-25T09:55:13.258Z,29.9168
2019-04-25T09:56:16.338Z,29.1157
2019-04-25T09:57:19.321Z,27.9438
2019-04-25T09:58:23.743Z,29.7337
2019-04-25T09:59:29.983Z,30.0847
2019-04-25T10:00:33.483Z,28.5573
2019-04-25T10:01:36.542Z,31.5007
2019-04-25T10:02:40.215Z,28.9998
2019-04-25T10:03:44.303Z,28.3909
2019-04-25T10:04:48.289Z,30.7576
2019-04-25T10:05:51.339Z,28.4825
2019-04-25T10:06:54.263Z,28.2185
2019-04-25T10:07:57.324Z,27.9744
2019-04-25T10:09:00.307Z,27.5303
2019-04-25T10:10:03.737Z,27.9210
2019-04-25T10:11:07.300Z,28.1621
2019-04-25T10:12:10.296Z,27.2557
2019-04-25T10:13:13.308Z,27.6265
2019-04-25T10:14:16.325Z,25.2384
2019-04-25T10:15:19.327Z,26.5965
2019-04-25T10:16:22.322Z,27.9850
2019-04-25T10:17:25.300Z,26.5644
2019-04-25T10:18:28.340Z,25.2506
2019-04-25T10:19:31.332Z,27.4449
2019-04-25T10:20:34.355Z,25.5940
2019-04-25T10:21:38.035Z,24.6983
2019-04-25T10:22:42.275Z,24.8218
2019-04-25T10:23:46.836Z,24.5792
2019-04-25T10:24:59.890Z,23.7491
2019-04-25T10:25:58.319Z,24.3397
2019-04-25T10:27:01.326Z,23.4379
2019-04-25T10:28:04.425Z,22.9435
2019-04-25T10:29:07.382Z,23.0365
2019-04-25T10:30:17.646Z,24.1398
2019-04-25T10:31:18.324Z,24.1382
2019-04-25T10:32:21.338Z,25.1011
2019-04-25T10:33:24.359Z,25.9373
2019-04-25T10:34:27.364Z,22.9023
2019-04-25T10:35:30.340Z,24.2206
2019-04-25T10:36:33.707Z,22.8763
2019-04-25T10:37:36.309Z,23.9551
2019-04-25T10:38:40.262Z,24.2206
2019-04-25T10:39:43.831Z,23.4516
2019-04-25T10:40:48.328Z,23.9612
2019-04-25T10:41:51.327Z,24.0757
2019-04-25T10:42:54.327Z,24.1627
2019-04-25T10:43:57.314Z,25.9007
2019-04-25T10:45:00.338Z,25.0507
2019-04-25T10:46:03.745Z,23.1220
2019-04-25T10:47:08.285Z,23.8178
2019-04-25T10:48:11.272Z,23.6637
2019-04-25T10:49:14.625Z,22.9114
2019-04-25T10:50:17.298Z,23.1556
2019-04-25T10:51:20.323Z,23.3967
2019-04-25T10:52:23.455Z,24.0284
2019-04-25T10:53:26.315Z,24.2542
2019-04-25T10:54:29.346Z,25.1698
2019-04-25T10:55:32.345Z,23.2410
2019-04-25T10:56:35.314Z,25.1011
2019-04-25T10:57:38.348Z,24.3915
2019-04-25T10:58:41.568Z,24.5792
2019-04-25T10:59:56.033Z,23.4897
2019-04-25T11:00:52.946Z,23.4073
2019-04-25T11:01:56.348Z,24.0284
2019-04-25T11:02:59.269Z,24.2451
2019-04-25T11:04:02.349Z,23.1922
2019-04-25T11:05:04.399Z,25.3834
2019-04-25T11:06:07.328Z,23.9048
2019-04-25T11:07:10.311Z,26.9947
2019-04-25T11:08:13.762Z,23.6042
2019-04-25T11:09:17.353Z,23.0594
2019-04-25T11:10:20.369Z,24.4266
2019-04-25T11:11:24.131Z,23.2502
2019-04-25T11:12:27.306Z,24.9500
2019-04-25T11:13:30.326Z,23.1128
2019-04-25T11:14:34.259Z,23.9429
2019-04-25T11:15:37.338Z,23.7278
2019-04-25T11:16:40.335Z,25.4902
2019-04-25T11:17:46.513Z,24.0208
2019-04-25T11:18:49.626Z,24.2802
2019-04-25T11:19:54.259Z,23.8972
2019-04-25T11:20:59.194Z,24.2725
2019-04-25T11:22:03.897Z,23.8865
2019-04-25T11:23:07.333Z,24.1993
2019-04-25T11:24:10.305Z,24.0620
2019-04-25T11:25:14.926Z,23.2868
2019-04-25T11:26:18.331Z,23.4211
2019-04-25T11:27:21.328Z,24.4465
2019-04-25T11:28:24.341Z,23.8331
2019-04-25T11:29:27.300Z,23.4424
2019-04-25T11:30:30.352Z,23.3005
2019-04-25T11:31:33.759Z,23.0396
2019-04-25T11:32:37.315Z,23.4928
2019-04-25T11:33:41.384Z,23.9414
2019-04-25T11:34:46.072Z,23.6133
2019-04-25T11:35:50.320Z,23.5294
2019-04-25T11:36:53.347Z,27.3030
2019-04-25T11:37:56.901Z,23.3799
2019-04-25T11:39:00.299Z,23.9109
2019-04-25T11:40:04.286Z,23.9887
2019-04-25T11:41:06.318Z,23.9414
2019-04-25T11:42:09.315Z,25.2827
2019-04-25T11:43:12.317Z,24.1520
2019-04-25T11:44:15.334Z,25.0324
2019-04-25T11:45:18.297Z,24.1489
2019-04-25T11:46:21.322Z,24.1535
2019-04-25T11:47:24.386Z,25.1926
2019-04-25T11:48:27.288Z,24.6525
2019-04-25T11:49:30.309Z,23.5950
2019-04-25T11:50:33.307Z,24.0848
2019-04-25T11:51:36.353Z,25.2384
2019-04-25T11:52:39.354Z,24.1489
2019-04-25T11:53:44.025Z,24.0467
2019-04-25T11:54:48.296Z,24.4221
2019-04-25T11:55:51.469Z,24.3030
2019-04-25T11:56:56.440Z,24.2023
2019-04-25T11:57:59.305Z,24.7196
2019-04-25T11:59:02.340Z,24.2359
2019-04-25T12:00:05.271Z,23.8178
2019-04-25T12:01:08.329Z,26.0487
2019-04-25T12:02:11.320Z,24.8859
2019-04-25T12:03:14.324Z,24.7395
2019-04-25T12:04:17.356Z,25.0782
2019-04-25T12:05:20.334Z,26.2684
2019-04-25T12:06:24.321Z,25.5528
2019-04-25T12:07:27.327Z,24.4541
2019-04-25T12:08:30.325Z,25.1820
2019-04-25T12:09:33.646Z,25.0324
2019-04-25T12:10:36.392Z,25.3712
2019-04-25T12:11:39.333Z,25.6504
2019-04-25T12:12:44.239Z,24.3137
2019-04-25T12:13:49.328Z,24.8707
2019-04-25T12:14:54.021Z,24.8585
2019-04-25T12:15:58.529Z,24.2451
2019-04-25T12:17:01.364Z,24.5914
2019-04-25T12:18:04.689Z,25.6809
2019-04-25T12:19:07.327Z,24.3626
2019-04-25T12:20:10.344Z,24.5640
2019-04-25T12:21:13.672Z,24.6464
2019-04-25T12:22:17.313Z,24.7333
2019-04-25T12:23:20.313Z,26.2959
2019-04-25T12:24:23.905Z,26.4149
2019-04-25T12:25:27.339Z,26.4836
2019-04-25T12:26:30.394Z,25.6123
2019-04-25T12:27:33.327Z,24.4419
2019-04-25T12:28:36.340Z,24.3122
2019-04-25T12:29:39.319Z,25.8320
2019-04-25T12:30:43.793Z,24.6509
2019-04-25T12:31:49.213Z,25.3025
2019-04-25T12:32:53.727Z,25.3941
2019-04-25T12:33:57.639Z,25.8976
2019-04-25T12:35:01.351Z,27.2602
2019-04-25T12:36:04.325Z,25.0263
2019-04-25T12:37:07.327Z,25.6825
2019-04-25T12:38:10.361Z,25.6855
2019-04-25T12:39:14.065Z,24.9622
2019-04-25T12:40:17.298Z,26.0853
2019-04-25T12:41:20.311Z,25.1423
2019-04-25T12:42:24.170Z,25.2567
2019-04-25T12:43:27.344Z,25.3834
2019-04-25T12:44:30.346Z,28.5557
2019-04-25T12:45:34.292Z,26.7796
2019-04-25T12:46:37.325Z,25.8518
2019-04-25T12:47:39.390Z,25.8503
2019-04-25T12:48:43.186Z,26.0884
2019-04-25T12:49:46.754Z,25.4658